sensor_id;sensor_type;location;lat;lon;timestamp;temperature;humidity
37408;DHT22;24866;50.248;8.252;2023-06-26T00:01:11;19.80;49.30
37408;DHT22;24866;50.248;8.252;2023-06-26T00:03:41;19.70;42.50
37408;DHT22;24866;50.248;8.252;2023-06-26T00:06:11;19.70;92.80
37408;DHT22;24866;50.248;8.252;2023-06-26T00:08:41;19.50;99.90
37408;DHT22;24866;50.248;8.252;2023-06-26T00:11:11;19.30;99.90
37408;DHT22;24866;50.248;8.252;2023-06-26T00:13:42;19.20;99.90
37408;DHT22;24866;50.248;8.252;2023-06-26T00:16:12;19.30;99.90
37408;DHT22;24866;50.248;8.252;2023-06-26T00:18:42;19.40;99.90
37408;DHT22;24866;50.248;8.252;2023-06-26T00:21:12;19.40;99.90
37408;DHT22;24866;50.248;8.252;2023-06-26T00:23:41;19.40;99.90
37408;DHT22;24866;50.248;8.252;2023-06-26T00:26:11;19.40;99.90
37408;DHT22;24866;50.248;8.252;2023-06-26T00:28:43;19.40;99.90
37408;DHT22;24866;50.248;8.252;2023-06-26T00:31:12;19.20;99.90
37408;DHT22;24866;50.248;8.252;2023-06-26T00:33:42;19.00;99.90
37408;DHT22;24866;50.248;8.252;2023-06-26T00:36:12;19.10;99.90
37408;DHT22;24866;50.248;8.252;2023-06-26T00:38:43;19.00;99.90
37408;DHT22;24866;50.248;8.252;2023-06-26T00:41:12;18.70;99.90
37408;DHT22;24866;50.248;8.252;2023-06-26T00:43:44;18.70;99.90
37408;DHT22;24866;50.248;8.252;2023-06-26T00:46:14;18.90;99.90
37408;DHT22;24866;50.248;8.252;2023-06-26T00:48:45;18.90;99.90
37408;DHT22;24866;50.248;8.252;2023-06-26T00:51:15;18.80;99.90
37408;DHT22;24866;50.248;8.252;2023-06-26T00:53:45;18.70;99.90
37408;DHT22;24866;50.248;8.252;2023-06-26T00:56:15;18.60;99.90
37408;DHT22;24866;50.248;8.252;2023-06-26T00:58:48;18.60;99.90
37408;DHT22;24866;50.248;8.252;2023-06-26T01:01:18;18.80;99.90
37408;DHT22;24866;50.248;8.252;2023-06-26T01:03:50;18.50;99.90
37408;DHT22;24866;50.248;8.252;2023-06-26T01:06:22;18.20;99.90
37408;DHT22;24866;50.248;8.252;2023-06-26T01:08:53;18.40;99.90
37408;DHT22;24866;50.248;8.252;2023-06-26T01:11:23;18.50;99.90
37408;DHT22;24866;50.248;8.252;2023-06-26T01:13:55;18.50;99.90
37408;DHT22;24866;50.248;8.252;2023-06-26T01:16:25;18.60;99.90
37408;DHT22;24866;50.248;8.252;2023-06-26T01:18:57;18.60;99.90
37408;DHT22;24866;50.248;8.252;2023-06-26T01:21:28;18.60;99.90
37408;DHT22;24866;50.248;8.252;2023-06-26T01:24:12;18.40;99.90
37408;DHT22;24866;50.248;8.252;2023-06-26T01:26:51;18.40;99.90
37408;DHT22;24866;50.248;8.252;2023-06-26T01:29:22;18.60;99.90
37408;DHT22;24866;50.248;8.252;2023-06-26T01:31:53;18.60;99.90
37408;DHT22;24866;50.248;8.252;2023-06-26T01:34:23;18.60;99.90
37408;DHT22;24866;50.248;8.252;2023-06-26T01:36:52;18.50;99.90
37408;DHT22;24866;50.248;8.252;2023-06-26T01:39:22;18.60;99.90
37408;DHT22;24866;50.248;8.252;2023-06-26T01:41:53;18.50;99.90
37408;DHT22;24866;50.248;8.252;2023-06-26T01:44:28;18.60;99.90
37408;DHT22;24866;50.248;8.252;2023-06-26T01:47:00;18.60;99.90
37408;DHT22;24866;50.248;8.252;2023-06-26T01:49:37;18.50;99.90
37408;DHT22;24866;50.248;8.252;2023-06-26T01:52:12;18.20;99.90
37408;DHT22;24866;50.248;8.252;2023-06-26T01:54:52;18.20;99.90
37408;DHT22;24866;50.248;8.252;2023-06-26T01:57:26;18.30;99.90
37408;DHT22;24866;50.248;8.252;2023-06-26T01:59:57;18.40;99.90
37408;DHT22;24866;50.248;8.252;2023-06-26T02:02:28;18.30;99.90
37408;DHT22;24866;50.248;8.252;2023-06-26T02:04:58;18.10;99.90
37408;DHT22;24866;50.248;8.252;2023-06-26T02:07:28;18.00;99.90
37408;DHT22;24866;50.248;8.252;2023-06-26T02:09:58;18.00;99.90
37408;DHT22;24866;50.248;8.252;2023-06-26T02:12:29;17.90;99.90
37408;DHT22;24866;50.248;8.252;2023-06-26T02:14:59;18.00;99.90
37408;DHT22;24866;50.248;8.252;2023-06-26T02:17:29;18.00;99.90
37408;DHT22;24866;50.248;8.252;2023-06-26T02:19:59;18.00;99.90
37408;DHT22;24866;50.248;8.252;2023-06-26T02:22:28;18.10;99.90
37408;DHT22;24866;50.248;8.252;2023-06-26T02:24:58;18.20;99.90
37408;DHT22;24866;50.248;8.252;2023-06-26T02:27:29;17.90;99.90
37408;DHT22;24866;50.248;8.252;2023-06-26T02:29:59;18.00;99.90
37408;DHT22;24866;50.248;8.252;2023-06-26T02:32:29;17.90;99.90
37408;DHT22;24866;50.248;8.252;2023-06-26T02:34:59;17.90;99.90
37408;DHT22;24866;50.248;8.252;2023-06-26T02:37:29;18.00;99.90
37408;DHT22;24866;50.248;8.252;2023-06-26T02:39:59;18.10;99.90
37408;DHT22;24866;50.248;8.252;2023-06-26T02:42:30;18.20;99.90
37408;DHT22;24866;50.248;8.252;2023-06-26T02:45:00;18.10;99.90
37408;DHT22;24866;50.248;8.252;2023-06-26T02:47:30;17.90;99.90
37408;DHT22;24866;50.248;8.252;2023-06-26T02:50:00;17.80;99.90
37408;DHT22;24866;50.248;8.252;2023-06-26T02:52:30;17.70;99.90
37408;DHT22;24866;50.248;8.252;2023-06-26T02:55:00;17.70;99.90
37408;DHT22;24866;50.248;8.252;2023-06-26T02:57:31;17.60;99.90
37408;DHT22;24866;50.248;8.252;2023-06-26T03:00:01;17.70;99.90
37408;DHT22;24866;50.248;8.252;2023-06-26T03:02:30;17.90;99.90
37408;DHT22;24866;50.248;8.252;2023-06-26T03:05:00;18.00;99.90
37408;DHT22;24866;50.248;8.252;2023-06-26T03:07:31;17.80;99.90
37408;DHT22;24866;50.248;8.252;2023-06-26T03:10:01;17.80;99.90
37408;DHT22;24866;50.248;8.252;2023-06-26T03:12:32;17.80;99.90
37408;DHT22;24866;50.248;8.252;2023-06-26T03:15:02;17.80;99.90
37408;DHT22;24866;50.248;8.252;2023-06-26T03:17:32;17.60;99.90
37408;DHT22;24866;50.248;8.252;2023-06-26T03:20:02;17.60;99.90
37408;DHT22;24866;50.248;8.252;2023-06-26T03:22:35;17.50;99.90
37408;DHT22;24866;50.248;8.252;2023-06-26T03:25:05;17.60;99.90
37408;DHT22;24866;50.248;8.252;2023-06-26T03:27:36;17.50;99.90
37408;DHT22;24866;50.248;8.252;2023-06-26T03:30:07;17.50;99.90
37408;DHT22;24866;50.248;8.252;2023-06-26T03:32:37;17.50;99.90
37408;DHT22;24866;50.248;8.252;2023-06-26T03:35:07;17.50;99.90
37408;DHT22;24866;50.248;8.252;2023-06-26T03:37:38;17.50;99.90
37408;DHT22;24866;50.248;8.252;2023-06-26T03:40:09;17.30;99.90
37408;DHT22;24866;50.248;8.252;2023-06-26T03:42:42;17.10;99.90
37408;DHT22;24866;50.248;8.252;2023-06-26T03:45:11;17.20;99.90
37408;DHT22;24866;50.248;8.252;2023-06-26T03:47:41;17.50;99.90
37408;DHT22;24866;50.248;8.252;2023-06-26T03:50:11;17.70;99.90
37408;DHT22;24866;50.248;8.252;2023-06-26T03:52:41;17.70;99.90
37408;DHT22;24866;50.248;8.252;2023-06-26T03:55:11;17.80;99.90
37408;DHT22;24866;50.248;8.252;2023-06-26T03:57:42;17.60;99.90
37408;DHT22;24866;50.248;8.252;2023-06-26T04:00:13;17.80;99.90
37408;DHT22;24866;50.248;8.252;2023-06-26T04:02:43;17.70;99.90
37408;DHT22;24866;50.248;8.252;2023-06-26T04:05:13;17.70;99.90
37408;DHT22;24866;50.248;8.252;2023-06-26T04:07:43;17.60;99.90
37408;DHT22;24866;50.248;8.252;2023-06-26T04:10:13;17.60;99.90
37408;DHT22;24866;50.248;8.252;2023-06-26T04:12:44;17.60;99.90
37408;DHT22;24866;50.248;8.252;2023-06-26T04:15:14;17.80;99.90
37408;DHT22;24866;50.248;8.252;2023-06-26T04:17:44;17.60;99.90
37408;DHT22;24866;50.248;8.252;2023-06-26T04:20:14;17.60;99.90
37408;DHT22;24866;50.248;8.252;2023-06-26T04:22:43;17.80;99.90
37408;DHT22;24866;50.248;8.252;2023-06-26T04:25:13;17.70;99.90
37408;DHT22;24866;50.248;8.252;2023-06-26T04:27:45;17.60;99.90
37408;DHT22;24866;50.248;8.252;2023-06-26T04:30:15;17.40;99.90
37408;DHT22;24866;50.248;8.252;2023-06-26T04:32:45;17.20;99.90
37408;DHT22;24866;50.248;8.252;2023-06-26T04:35:15;17.20;99.90
37408;DHT22;24866;50.248;8.252;2023-06-26T04:37:45;17.40;99.90
37408;DHT22;24866;50.248;8.252;2023-06-26T04:40:15;17.30;99.90
37408;DHT22;24866;50.248;8.252;2023-06-26T04:42:46;17.30;99.90
37408;DHT22;24866;50.248;8.252;2023-06-26T04:45:16;17.40;99.90
37408;DHT22;24866;50.248;8.252;2023-06-26T04:47:45;17.20;99.90
37408;DHT22;24866;50.248;8.252;2023-06-26T04:50:15;17.10;99.90
37408;DHT22;24866;50.248;8.252;2023-06-26T04:52:47;17.00;99.90
37408;DHT22;24866;50.248;8.252;2023-06-26T04:55:17;17.00;99.90
37408;DHT22;24866;50.248;8.252;2023-06-26T04:57:48;17.10;99.90
37408;DHT22;24866;50.248;8.252;2023-06-26T05:00:18;17.30;99.90
37408;DHT22;24866;50.248;8.252;2023-06-26T05:02:48;17.50;99.90
37408;DHT22;24866;50.248;8.252;2023-06-26T05:05:18;17.60;99.90
37408;DHT22;24866;50.248;8.252;2023-06-26T05:07:47;17.70;99.90
37408;DHT22;24866;50.248;8.252;2023-06-26T05:10:17;17.90;99.90
37408;DHT22;24866;50.248;8.252;2023-06-26T05:12:48;18.10;99.90
37408;DHT22;24866;50.248;8.252;2023-06-26T05:15:18;18.10;99.90
37408;DHT22;24866;50.248;8.252;2023-06-26T05:17:48;18.30;99.90
37408;DHT22;24866;50.248;8.252;2023-06-26T05:20:18;18.40;99.90
37408;DHT22;24866;50.248;8.252;2023-06-26T05:22:48;18.50;99.90
37408;DHT22;24866;50.248;8.252;2023-06-26T05:25:19;18.70;99.90
37408;DHT22;24866;50.248;8.252;2023-06-26T05:27:52;18.80;99.90
37408;DHT22;24866;50.248;8.252;2023-06-26T05:30:23;18.90;99.90
37408;DHT22;24866;50.248;8.252;2023-06-26T05:32:54;19.00;99.90
37408;DHT22;24866;50.248;8.252;2023-06-26T05:35:27;18.90;99.90
37408;DHT22;24866;50.248;8.252;2023-06-26T05:37:57;19.00;99.90
37408;DHT22;24866;50.248;8.252;2023-06-26T05:40:27;18.90;99.90
37408;DHT22;24866;50.248;8.252;2023-06-26T05:42:59;19.00;99.90
37408;DHT22;24866;50.248;8.252;2023-06-26T05:45:29;19.10;99.90
37408;DHT22;24866;50.248;8.252;2023-06-26T05:47:59;19.20;99.90
37408;DHT22;24866;50.248;8.252;2023-06-26T05:50:29;19.10;99.90
37408;DHT22;24866;50.248;8.252;2023-06-26T05:53:00;19.20;99.90
37408;DHT22;24866;50.248;8.252;2023-06-26T05:55:32;19.40;99.90
37408;DHT22;24866;50.248;8.252;2023-06-26T05:58:03;19.60;99.90
37408;DHT22;24866;50.248;8.252;2023-06-26T06:00:34;19.90;99.90
37408;DHT22;24866;50.248;8.252;2023-06-26T06:03:04;20.00;99.90
37408;DHT22;24866;50.248;8.252;2023-06-26T06:05:34;20.10;99.90
37408;DHT22;24866;50.248;8.252;2023-06-26T06:08:04;20.20;99.90
37408;DHT22;24866;50.248;8.252;2023-06-26T06:10:34;20.30;99.90
37408;DHT22;24866;50.248;8.252;2023-06-26T06:13:05;20.40;99.90
37408;DHT22;24866;50.248;8.252;2023-06-26T06:15:35;20.30;99.90
37408;DHT22;24866;50.248;8.252;2023-06-26T06:18:05;20.50;99.90
37408;DHT22;24866;50.248;8.252;2023-06-26T06:20:35;20.60;99.90
37408;DHT22;24866;50.248;8.252;2023-06-26T06:23:05;20.70;99.90
37408;DHT22;24866;50.248;8.252;2023-06-26T06:25:35;20.90;99.90
37408;DHT22;24866;50.248;8.252;2023-06-26T06:28:06;21.10;99.90
37408;DHT22;24866;50.248;8.252;2023-06-26T06:30:36;20.90;99.90
37408;DHT22;24866;50.248;8.252;2023-06-26T06:33:06;21.10;99.90
37408;DHT22;24866;50.248;8.252;2023-06-26T06:35:35;21.20;99.90
37408;DHT22;24866;50.248;8.252;2023-06-26T06:38:06;21.30;99.90
37408;DHT22;24866;50.248;8.252;2023-06-26T06:40:35;21.40;99.90
37408;DHT22;24866;50.248;8.252;2023-06-26T06:43:07;21.50;99.90
37408;DHT22;24866;50.248;8.252;2023-06-26T06:45:36;21.50;99.90
37408;DHT22;24866;50.248;8.252;2023-06-26T06:48:07;21.60;99.90
37408;DHT22;24866;50.248;8.252;2023-06-26T06:50:36;21.70;99.90
37408;DHT22;24866;50.248;8.252;2023-06-26T06:53:07;21.80;99.90
37408;DHT22;24866;50.248;8.252;2023-06-26T06:55:37;21.90;99.90
37408;DHT22;24866;50.248;8.252;2023-06-26T06:58:08;22.00;99.90
37408;DHT22;24866;50.248;8.252;2023-06-26T07:00:38;22.00;99.90
37408;DHT22;24866;50.248;8.252;2023-06-26T07:03:08;22.20;99.90
37408;DHT22;24866;50.248;8.252;2023-06-26T07:05:40;22.30;99.90
37408;DHT22;24866;50.248;8.252;2023-06-26T07:08:10;22.30;99.90
37408;DHT22;24866;50.248;8.252;2023-06-26T07:10:40;22.50;99.90
37408;DHT22;24866;50.248;8.252;2023-06-26T07:13:12;22.60;99.90
37408;DHT22;24866;50.248;8.252;2023-06-26T07:15:42;22.70;99.90
37408;DHT22;24866;50.248;8.252;2023-06-26T07:18:12;22.90;99.90
37408;DHT22;24866;50.248;8.252;2023-06-26T07:20:42;23.00;99.90
37408;DHT22;24866;50.248;8.252;2023-06-26T07:23:12;23.00;99.90
37408;DHT22;24866;50.248;8.252;2023-06-26T07:25:42;23.10;99.90
37408;DHT22;24866;50.248;8.252;2023-06-26T07:28:13;23.00;99.90
37408;DHT22;24866;50.248;8.252;2023-06-26T07:30:43;22.90;99.90
37408;DHT22;24866;50.248;8.252;2023-06-26T07:33:13;22.80;99.90
37408;DHT22;24866;50.248;8.252;2023-06-26T07:35:43;23.00;99.90
37408;DHT22;24866;50.248;8.252;2023-06-26T07:38:13;23.20;99.90
37408;DHT22;24866;50.248;8.252;2023-06-26T07:40:43;23.40;99.90
37408;DHT22;24866;50.248;8.252;2023-06-26T07:43:14;23.40;99.90
37408;DHT22;24866;50.248;8.252;2023-06-26T07:45:44;23.40;99.90
37408;DHT22;24866;50.248;8.252;2023-06-26T07:48:14;23.30;99.90
37408;DHT22;24866;50.248;8.252;2023-06-26T07:50:44;23.50;99.90
37408;DHT22;24866;50.248;8.252;2023-06-26T07:53:14;23.40;99.90
37408;DHT22;24866;50.248;8.252;2023-06-26T07:55:44;23.30;99.90
37408;DHT22;24866;50.248;8.252;2023-06-26T07:58:15;23.30;99.90
37408;DHT22;24866;50.248;8.252;2023-06-26T08:00:45;23.30;99.90
37408;DHT22;24866;50.248;8.252;2023-06-26T08:03:15;23.40;99.90
37408;DHT22;24866;50.248;8.252;2023-06-26T08:05:45;23.50;99.90
37408;DHT22;24866;50.248;8.252;2023-06-26T08:08:15;23.70;99.90
37408;DHT22;24866;50.248;8.252;2023-06-26T08:10:45;23.80;99.90
37408;DHT22;24866;50.248;8.252;2023-06-26T08:13:17;23.80;99.90
37408;DHT22;24866;50.248;8.252;2023-06-26T08:15:47;23.90;99.90
37408;DHT22;24866;50.248;8.252;2023-06-26T08:18:17;24.10;99.90
37408;DHT22;24866;50.248;8.252;2023-06-26T08:20:47;24.20;99.90
37408;DHT22;24866;50.248;8.252;2023-06-26T08:23:17;24.40;99.90
37408;DHT22;24866;50.248;8.252;2023-06-26T08:25:47;24.60;99.90
37408;DHT22;24866;50.248;8.252;2023-06-26T08:28:18;24.60;99.90
37408;DHT22;24866;50.248;8.252;2023-06-26T08:30:48;25.00;99.90
37408;DHT22;24866;50.248;8.252;2023-06-26T08:33:18;24.80;99.90
37408;DHT22;24866;50.248;8.252;2023-06-26T08:35:49;24.70;99.90
37408;DHT22;24866;50.248;8.252;2023-06-26T08:38:19;24.50;99.90
37408;DHT22;24866;50.248;8.252;2023-06-26T08:40:50;24.50;99.90
37408;DHT22;24866;50.248;8.252;2023-06-26T08:43:21;24.40;99.90
37408;DHT22;24866;50.248;8.252;2023-06-26T08:45:51;24.50;99.90
37408;DHT22;24866;50.248;8.252;2023-06-26T08:48:21;24.80;99.90
37408;DHT22;24866;50.248;8.252;2023-06-26T08:50:53;24.90;97.30
37408;DHT22;24866;50.248;8.252;2023-06-26T08:53:29;24.70;1.00
37408;DHT22;24866;50.248;8.252;2023-06-26T08:56:00;24.60;1.00
37408;DHT22;24866;50.248;8.252;2023-06-26T08:58:32;25.00;1.00
37408;DHT22;24866;50.248;8.252;2023-06-26T09:01:04;25.00;99.90
37408;DHT22;24866;50.248;8.252;2023-06-26T09:03:35;24.50;26.00
37408;DHT22;24866;50.248;8.252;2023-06-26T09:06:05;24.60;37.90
37408;DHT22;24866;50.248;8.252;2023-06-26T09:08:35;24.70;1.00
37408;DHT22;24866;50.248;8.252;2023-06-26T09:11:05;25.20;1.00
37408;DHT22;24866;50.248;8.252;2023-06-26T09:13:36;25.10;99.90
37408;DHT22;24866;50.248;8.252;2023-06-26T09:16:07;25.30;1.00
37408;DHT22;24866;50.248;8.252;2023-06-26T09:18:37;25.10;99.90
37408;DHT22;24866;50.248;8.252;2023-06-26T09:21:10;25.20;25.20
37408;DHT22;24866;50.248;8.252;2023-06-26T09:23:40;25.20;1.00
37408;DHT22;24866;50.248;8.252;2023-06-26T09:26:11;25.00;1.00
37408;DHT22;24866;50.248;8.252;2023-06-26T09:28:43;25.40;1.00
37408;DHT22;24866;50.248;8.252;2023-06-26T09:31:12;25.80;1.00
37408;DHT22;24866;50.248;8.252;2023-06-26T09:33:42;25.40;99.90
37408;DHT22;24866;50.248;8.252;2023-06-26T09:36:19;25.40;99.90
37408;DHT22;24866;50.248;8.252;2023-06-26T09:38:50;25.60;99.10
37408;DHT22;24866;50.248;8.252;2023-06-26T09:41:20;25.30;1.00
37408;DHT22;24866;50.248;8.252;2023-06-26T09:43:51;25.20;1.00
37408;DHT22;24866;50.248;8.252;2023-06-26T09:46:24;25.20;1.00
37408;DHT22;24866;50.248;8.252;2023-06-26T09:49:00;25.10;1.00
37408;DHT22;24866;50.248;8.252;2023-06-26T09:51:31;25.10;1.00
37408;DHT22;24866;50.248;8.252;2023-06-26T09:54:01;24.90;1.00
37408;DHT22;24866;50.248;8.252;2023-06-26T09:56:32;25.00;85.00
37408;DHT22;24866;50.248;8.252;2023-06-26T09:59:05;25.20;1.00
37408;DHT22;24866;50.248;8.252;2023-06-26T10:01:36;24.70;1.00
37408;DHT22;24866;50.248;8.252;2023-06-26T10:04:06;24.90;1.00
37408;DHT22;24866;50.248;8.252;2023-06-26T10:06:38;25.30;1.00
37408;DHT22;24866;50.248;8.252;2023-06-26T10:09:10;25.60;1.00
37408;DHT22;24866;50.248;8.252;2023-06-26T10:11:43;25.40;1.00
37408;DHT22;24866;50.248;8.252;2023-06-26T10:14:17;25.20;1.00
37408;DHT22;24866;50.248;8.252;2023-06-26T10:16:48;25.30;1.00
37408;DHT22;24866;50.248;8.252;2023-06-26T10:19:19;25.50;1.00
37408;DHT22;24866;50.248;8.252;2023-06-26T10:21:54;25.40;1.00
37408;DHT22;24866;50.248;8.252;2023-06-26T10:24:26;25.60;1.00
37408;DHT22;24866;50.248;8.252;2023-06-26T10:27:01;25.60;1.00
37408;DHT22;24866;50.248;8.252;2023-06-26T10:29:35;25.50;1.00
37408;DHT22;24866;50.248;8.252;2023-06-26T10:32:07;25.50;1.00
37408;DHT22;24866;50.248;8.252;2023-06-26T10:34:38;25.80;1.00
37408;DHT22;24866;50.248;8.252;2023-06-26T10:37:07;25.80;99.90
37408;DHT22;24866;50.248;8.252;2023-06-26T10:39:48;26.10;1.00
37408;DHT22;24866;50.248;8.252;2023-06-26T10:42:19;26.50;1.00
37408;DHT22;24866;50.248;8.252;2023-06-26T10:45:09;26.00;99.90
37408;DHT22;24866;50.248;8.252;2023-06-26T10:47:40;26.10;99.90
37408;DHT22;24866;50.248;8.252;2023-06-26T10:50:18;25.90;99.90
37408;DHT22;24866;50.248;8.252;2023-06-26T10:53:09;26.00;1.00
37408;DHT22;24866;50.248;8.252;2023-06-26T10:55:43;26.20;99.90
37408;DHT22;24866;50.248;8.252;2023-06-26T10:58:27;26.10;1.00
37408;DHT22;24866;50.248;8.252;2023-06-26T11:01:21;26.60;1.00
37408;DHT22;24866;50.248;8.252;2023-06-26T11:04:04;26.20;1.00
37408;DHT22;24866;50.248;8.252;2023-06-26T11:06:35;25.90;1.00
37408;DHT22;24866;50.248;8.252;2023-06-26T11:09:08;26.10;1.00
37408;DHT22;24866;50.248;8.252;2023-06-26T11:11:59;25.90;1.00
37408;DHT22;24866;50.248;8.252;2023-06-26T11:14:33;25.80;1.00
37408;DHT22;24866;50.248;8.252;2023-06-26T11:17:05;25.80;1.00
37408;DHT22;24866;50.248;8.252;2023-06-26T11:19:36;25.90;1.00
37408;DHT22;24866;50.248;8.252;2023-06-26T11:22:06;25.80;1.00
37408;DHT22;24866;50.248;8.252;2023-06-26T11:24:36;26.30;12.50
37408;DHT22;24866;50.248;8.252;2023-06-26T11:27:06;26.30;1.00
37408;DHT22;24866;50.248;8.252;2023-06-26T11:29:36;26.40;1.00
37408;DHT22;24866;50.248;8.252;2023-06-26T11:32:07;26.10;1.00
37408;DHT22;24866;50.248;8.252;2023-06-26T11:34:37;26.00;1.00
37408;DHT22;24866;50.248;8.252;2023-06-26T11:37:08;25.90;1.00
37408;DHT22;24866;50.248;8.252;2023-06-26T11:39:38;26.10;1.00
37408;DHT22;24866;50.248;8.252;2023-06-26T11:42:08;26.20;1.00
37408;DHT22;24866;50.248;8.252;2023-06-26T11:44:41;26.00;1.00
37408;DHT22;24866;50.248;8.252;2023-06-26T11:47:17;25.70;1.00
37408;DHT22;24866;50.248;8.252;2023-06-26T11:49:49;25.50;1.00
37408;DHT22;24866;50.248;8.252;2023-06-26T11:52:19;25.60;1.00
37408;DHT22;24866;50.248;8.252;2023-06-26T11:54:49;25.60;1.00
37408;DHT22;24866;50.248;8.252;2023-06-26T11:57:19;25.20;1.00
37408;DHT22;24866;50.248;8.252;2023-06-26T11:59:50;25.40;1.00
37408;DHT22;24866;50.248;8.252;2023-06-26T12:02:21;25.50;1.00
37408;DHT22;24866;50.248;8.252;2023-06-26T12:04:51;25.60;1.00
37408;DHT22;24866;50.248;8.252;2023-06-26T12:07:21;25.40;1.00
37408;DHT22;24866;50.248;8.252;2023-06-26T12:09:52;25.30;1.00
37408;DHT22;24866;50.248;8.252;2023-06-26T12:12:24;25.60;1.00
37408;DHT22;24866;50.248;8.252;2023-06-26T12:14:54;25.80;1.00
37408;DHT22;24866;50.248;8.252;2023-06-26T12:17:26;25.70;1.00
37408;DHT22;24866;50.248;8.252;2023-06-26T12:19:56;25.70;1.00
37408;DHT22;24866;50.248;8.252;2023-06-26T12:22:33;25.60;99.90
37408;DHT22;24866;50.248;8.252;2023-06-26T12:25:07;25.40;99.90
37408;DHT22;24866;50.248;8.252;2023-06-26T12:27:37;25.40;99.90
37408;DHT22;24866;50.248;8.252;2023-06-26T12:30:07;25.50;99.90
37408;DHT22;24866;50.248;8.252;2023-06-26T12:32:39;25.60;99.90
37408;DHT22;24866;50.248;8.252;2023-06-26T12:35:09;25.60;99.90
37408;DHT22;24866;50.248;8.252;2023-06-26T12:37:39;25.90;99.90
37408;DHT22;24866;50.248;8.252;2023-06-26T12:40:16;25.50;99.90
37408;DHT22;24866;50.248;8.252;2023-06-26T12:42:47;25.80;99.90
37408;DHT22;24866;50.248;8.252;2023-06-26T12:45:17;25.90;99.90
37408;DHT22;24866;50.248;8.252;2023-06-26T12:47:50;25.90;99.90
37408;DHT22;24866;50.248;8.252;2023-06-26T12:50:21;25.60;71.10
37408;DHT22;24866;50.248;8.252;2023-06-26T12:52:51;25.50;14.30
37408;DHT22;24866;50.248;8.252;2023-06-26T12:55:21;25.30;1.00
37408;DHT22;24866;50.248;8.252;2023-06-26T12:57:51;25.40;48.30
37408;DHT22;24866;50.248;8.252;2023-06-26T13:00:21;25.40;1.00
37408;DHT22;24866;50.248;8.252;2023-06-26T13:02:53;25.60;3.00
37408;DHT22;24866;50.248;8.252;2023-06-26T13:05:23;25.30;1.00
37408;DHT22;24866;50.248;8.252;2023-06-26T13:07:53;25.10;1.00
37408;DHT22;24866;50.248;8.252;2023-06-26T13:10:24;25.10;1.00
37408;DHT22;24866;50.248;8.252;2023-06-26T13:12:55;25.30;1.00
37408;DHT22;24866;50.248;8.252;2023-06-26T13:15:25;25.30;1.00
37408;DHT22;24866;50.248;8.252;2023-06-26T13:17:57;25.30;1.00
37408;DHT22;24866;50.248;8.252;2023-06-26T13:20:27;25.20;1.00
37408;DHT22;24866;50.248;8.252;2023-06-26T13:22:57;25.00;1.00
37408;DHT22;24866;50.248;8.252;2023-06-26T13:25:27;24.80;1.00
37408;DHT22;24866;50.248;8.252;2023-06-26T13:27:57;25.00;99.90
37408;DHT22;24866;50.248;8.252;2023-06-26T13:30:27;24.90;99.90
37408;DHT22;24866;50.248;8.252;2023-06-26T13:32:59;24.80;99.90
37408;DHT22;24866;50.248;8.252;2023-06-26T13:35:29;24.90;99.90
37408;DHT22;24866;50.248;8.252;2023-06-26T13:37:59;25.00;99.90
37408;DHT22;24866;50.248;8.252;2023-06-26T13:40:29;25.00;99.90
37408;DHT22;24866;50.248;8.252;2023-06-26T13:42:59;25.00;99.90
37408;DHT22;24866;50.248;8.252;2023-06-26T13:45:29;25.20;99.90
37408;DHT22;24866;50.248;8.252;2023-06-26T13:48:01;25.20;99.90
37408;DHT22;24866;50.248;8.252;2023-06-26T13:50:31;25.20;99.90
37408;DHT22;24866;50.248;8.252;2023-06-26T13:53:01;25.50;99.90
37408;DHT22;24866;50.248;8.252;2023-06-26T13:55:31;25.40;99.90
37408;DHT22;24866;50.248;8.252;2023-06-26T13:58:01;25.00;31.10
37408;DHT22;24866;50.248;8.252;2023-06-26T14:00:34;24.90;6.80
37408;DHT22;24866;50.248;8.252;2023-06-26T14:03:06;24.90;1.00
37408;DHT22;24866;50.248;8.252;2023-06-26T14:05:37;25.00;1.00
37408;DHT22;24866;50.248;8.252;2023-06-26T14:08:08;24.80;1.00
37408;DHT22;24866;50.248;8.252;2023-06-26T14:10:39;24.70;1.00
37408;DHT22;24866;50.248;8.252;2023-06-26T14:13:09;24.80;1.00
37408;DHT22;24866;50.248;8.252;2023-06-26T14:15:40;24.70;1.00
37408;DHT22;24866;50.248;8.252;2023-06-26T14:18:12;24.70;1.00
37408;DHT22;24866;50.248;8.252;2023-06-26T14:20:41;24.60;1.00
37408;DHT22;24866;50.248;8.252;2023-06-26T14:23:11;24.50;1.00
37408;DHT22;24866;50.248;8.252;2023-06-26T14:25:41;24.50;1.00
37408;DHT22;24866;50.248;8.252;2023-06-26T14:28:11;24.40;1.00
37408;DHT22;24866;50.248;8.252;2023-06-26T14:30:41;24.40;1.00
37408;DHT22;24866;50.248;8.252;2023-06-26T14:33:12;24.40;1.00
37408;DHT22;24866;50.248;8.252;2023-06-26T14:35:42;24.50;1.00
37408;DHT22;24866;50.248;8.252;2023-06-26T14:38:12;24.50;1.00
37408;DHT22;24866;50.248;8.252;2023-06-26T14:40:42;24.70;1.00
37408;DHT22;24866;50.248;8.252;2023-06-26T14:43:12;24.80;1.00
37408;DHT22;24866;50.248;8.252;2023-06-26T14:45:42;24.60;1.00
37408;DHT22;24866;50.248;8.252;2023-06-26T14:48:13;24.30;99.90
37408;DHT22;24866;50.248;8.252;2023-06-26T14:50:43;24.60;1.00
37408;DHT22;24866;50.248;8.252;2023-06-26T14:53:12;24.90;1.00
37408;DHT22;24866;50.248;8.252;2023-06-26T14:55:42;24.70;99.90
37408;DHT22;24866;50.248;8.252;2023-06-26T14:58:12;25.20;1.00
37408;DHT22;24866;50.248;8.252;2023-06-26T15:00:42;24.70;99.90
37408;DHT22;24866;50.248;8.252;2023-06-26T15:03:14;24.60;99.90
37408;DHT22;24866;50.248;8.252;2023-06-26T15:05:44;24.60;99.90
37408;DHT22;24866;50.248;8.252;2023-06-26T15:08:13;24.50;99.90
37408;DHT22;24866;50.248;8.252;2023-06-26T15:10:43;24.60;99.90
37408;DHT22;24866;50.248;8.252;2023-06-26T15:13:13;24.70;99.90
37408;DHT22;24866;50.248;8.252;2023-06-26T15:15:43;24.80;99.90
37408;DHT22;24866;50.248;8.252;2023-06-26T15:18:14;24.70;99.90
37408;DHT22;24866;50.248;8.252;2023-06-26T15:20:44;24.80;99.90
37408;DHT22;24866;50.248;8.252;2023-06-26T15:23:14;24.60;99.90
37408;DHT22;24866;50.248;8.252;2023-06-26T15:25:44;24.70;99.90
37408;DHT22;24866;50.248;8.252;2023-06-26T15:28:14;24.60;99.90
37408;DHT22;24866;50.248;8.252;2023-06-26T15:30:45;24.50;99.90
37408;DHT22;24866;50.248;8.252;2023-06-26T15:33:17;24.60;99.90
37408;DHT22;24866;50.248;8.252;2023-06-26T15:35:47;25.00;99.90
37408;DHT22;24866;50.248;8.252;2023-06-26T15:38:17;25.10;99.90
37408;DHT22;24866;50.248;8.252;2023-06-26T15:40:47;25.00;99.90
37408;DHT22;24866;50.248;8.252;2023-06-26T15:43:16;24.80;57.40
37408;DHT22;24866;50.248;8.252;2023-06-26T15:45:47;24.70;26.10
37408;DHT22;24866;50.248;8.252;2023-06-26T15:48:18;24.60;8.70
37408;DHT22;24866;50.248;8.252;2023-06-26T15:50:48;24.40;1.00
37408;DHT22;24866;50.248;8.252;2023-06-26T15:53:18;24.60;1.00
37408;DHT22;24866;50.248;8.252;2023-06-26T15:55:48;24.70;1.00
37408;DHT22;24866;50.248;8.252;2023-06-26T15:58:18;24.70;1.00